Huvudsida
METAR-TAF:

METAR-TAF

Flygplatser :

Shanghai Hongqiao International Airport

Shanghai-Hongqiao, Kina

latitud: 31-10N, longitud: 121-26E, höjd: 7 m

Aktuellt väderrapport

Denna rapport gjordes för 31 minuter sedan, klockan 14:00 UTC
Vind 8 kt från nord
Temperatur 13°C
Fuktighet 100%
Tryck 1024 hPa
Sikt: 6000 m
Brutna moln på en höjd av 1600 ft
Mulet på en höjd av 4000 ft
lätt regn

METAR: ZSSS 161400Z 36004MPS 6000 -RA BKN016 OVC040 13/13 Q1024 BECMG TL1510 BKN010 OVC040

Tid: 22:31 (14:31 UTC)

Väderprognos

Denna rapport gjordes för 5 timmar och 20 minuter sedan, klockan 09:11 UTC
Prognos gäller från 16 kl. 12 UTC till 17 kl. 12 UTC
Vind 10 kt från nord/nordost
Sikt: 6000 m
Brutna moln på en höjd av 1500 ft
Mulet på en höjd av 4000 ft

TAF: ZSSS 160911Z 1612/1712 03005MPS 6000 BKN015 OVC040 TX17/1706Z TN12/1621Z

Aktuella väderrapporter och prognoser från 4000 flygplatser (METAR- och TAF-rapporter).

De tillgängliga stationerna syns som gula och röda prickar på kartan.

För musen över prickarna för att se namnen på stationerna.

Klicka sedan för att få väderrapporter och prognoser.

För att ändra kartan: Klicka på de gröna knapparna med ett svart kors på för att zooma in; den gröna knappen med ett streck på för att zooma ut; eller på de gröna pilarna för angränsande kartor.


METAR-TAF: